createdAt,value
2022-11-29T00:01:18.466Z,101069.66
2022-11-29T00:03:45.083Z,101074.94
2022-11-29T00:06:19.142Z,101073.34
2022-11-29T00:08:46.405Z,101069.91
2022-11-29T00:11:39.384Z,101064.75
2022-11-29T00:14:07.587Z,101065.72
2022-11-29T00:16:34.168Z,101074.34
2022-11-29T00:19:00.695Z,101064.94
2022-11-29T00:21:27.370Z,101068.53
2022-11-29T00:23:53.767Z,101063.56
2022-11-29T00:26:20.087Z,101064.44
2022-11-29T00:28:46.653Z,101070.59
2022-11-29T00:31:27.545Z,101072.34
2022-11-29T00:33:54.186Z,101049.56
2022-11-29T00:36:20.825Z,101060.50
2022-11-29T00:38:47.174Z,101077.59
2022-11-29T00:41:13.812Z,101069.88
2022-11-29T00:43:40.427Z,101039.31
2022-11-29T00:46:06.941Z,101068.22
2022-11-29T00:48:33.658Z,101068.25
2022-11-29T00:50:59.956Z,101056.41
2022-11-29T00:53:26.392Z,101067.44
2022-11-29T00:55:53.430Z,101071.75
2022-11-29T00:58:21.084Z,101068.22
2022-11-29T01:00:47.791Z,101069.03
2022-11-29T01:03:15.619Z,101058.62
2022-11-29T01:05:42.973Z,101058.56
2022-11-29T01:08:10.526Z,101060.28
2022-11-29T01:10:37.144Z,101045.75
2022-11-29T01:13:03.908Z,101056.69
2022-11-29T01:15:30.487Z,101057.50
2022-11-29T01:17:57.037Z,101062.66
2022-11-29T01:20:23.360Z,101058.19
2022-11-29T01:22:49.746Z,101048.78
2022-11-29T01:25:16.731Z,101059.00
2022-11-29T01:27:43.045Z,101052.91
2022-11-29T01:30:10.659Z,101062.34
2022-11-29T01:32:37.515Z,101057.91
2022-11-29T01:35:04.580Z,101059.63
2022-11-29T01:37:31.013Z,101057.84
2022-11-29T01:39:57.579Z,101052.66
2022-11-29T01:42:24.220Z,101055.19
2022-11-29T01:44:50.417Z,101044.00
2022-11-29T01:47:18.071Z,101053.47
2022-11-29T01:49:45.841Z,101011.91
2022-11-29T01:52:18.128Z,101043.28
2022-11-29T01:54:47.725Z,101048.50
2022-11-29T01:57:14.173Z,101041.75
2022-11-29T01:59:47.757Z,101049.28
2022-11-29T02:02:22.596Z,101041.53
2022-11-29T02:04:49.635Z,101038.16
2022-11-29T02:07:16.313Z,101038.25
2022-11-29T02:09:42.669Z,101041.75
2022-11-29T02:12:44.427Z,101039.16
2022-11-29T02:15:29.791Z,101038.31
2022-11-29T02:18:21.090Z,101043.50
2022-11-29T02:21:14.903Z,101047.91
2022-11-29T02:24:02.435Z,101052.22
2022-11-29T02:26:40.966Z,101047.09
2022-11-29T02:29:07.205Z,101044.41
2022-11-29T02:32:17.013Z,101047.84
2022-11-29T02:35:19.669Z,101046.13
2022-11-29T02:38:10.511Z,101047.00
2022-11-29T02:41:24.324Z,101057.47
2022-11-29T02:44:24.289Z,101049.84
2022-11-29T02:47:21.552Z,101054.25
2022-11-29T02:49:59.511Z,101057.81
2022-11-29T02:52:47.771Z,101050.06
2022-11-29T02:55:48.336Z,101045.84
2022-11-29T02:58:24.493Z,101048.44
2022-11-29T03:01:04.530Z,101049.38
2022-11-29T03:03:42.427Z,101034.22
2022-11-29T03:06:53.478Z,101052.06
2022-11-29T03:09:35.323Z,101050.37
2022-11-29T03:12:19.647Z,101048.66
2022-11-29T03:15:35.589Z,101059.91
2022-11-29T03:18:17.650Z,101059.09
2022-11-29T03:21:10.313Z,101048.75
2022-11-29T03:23:41.411Z,101061.63
2022-11-29T03:26:27.162Z,101047.91
2022-11-29T03:29:07.815Z,101047.13
2022-11-29T03:31:43.071Z,101044.41
2022-11-29T03:34:37.421Z,101044.47
2022-11-29T03:37:13.680Z,101048.78
2022-11-29T03:39:51.756Z,101013.03
2022-11-29T03:42:25.129Z,101026.81
2022-11-29T03:45:25.346Z,101048.00
2022-11-29T03:48:11.912Z,101042.88
2022-11-29T03:50:43.860Z,101051.50
2022-11-29T03:53:32.082Z,101055.00
2022-11-29T03:56:04.539Z,101050.66
2022-11-29T03:58:47.017Z,101048.16
2022-11-29T04:01:35.216Z,101029.44
2022-11-29T04:04:20.292Z,101054.19
2022-11-29T04:07:01.573Z,101062.97
2022-11-29T04:09:34.098Z,101060.44
2022-11-29T04:12:17.951Z,101052.69
2022-11-29T04:15:03.440Z,101047.59
2022-11-29T04:17:45.300Z,101066.56
2022-11-29T04:20:17.965Z,101067.44
2022-11-29T04:23:08.953Z,101071.81
2022-11-29T04:26:04.753Z,101071.88
2022-11-29T04:29:05.107Z,101074.72
2022-11-29T04:31:58.680Z,101066.34
2022-11-29T04:34:59.007Z,101069.19
2022-11-29T04:37:58.328Z,101081.56
2022-11-29T04:40:51.322Z,101068.84
2022-11-29T04:43:39.082Z,101064.13
2022-11-29T04:46:14.170Z,101076.31
2022-11-29T04:48:50.750Z,101073.09
2022-11-29T04:51:39.618Z,101071.56
2022-11-29T04:54:28.146Z,101075.94
2022-11-29T04:57:02.023Z,101080.38
2022-11-29T05:00:08.195Z,101077.13
2022-11-29T05:02:48.484Z,101083.19
2022-11-29T05:05:45.794Z,101075.66
2022-11-29T05:08:46.226Z,101075.69
2022-11-29T05:11:31.114Z,101084.37
2022-11-29T05:14:22.343Z,101081.13
2022-11-29T05:16:54.450Z,101083.78
2022-11-29T05:19:28.865Z,101082.13
2022-11-29T05:22:20.266Z,101080.47
2022-11-29T05:24:56.409Z,101089.12
2022-11-29T05:27:22.923Z,101082.34
2022-11-29T05:29:52.034Z,101084.97
2022-11-29T05:32:32.653Z,101040.91
2022-11-29T05:35:14.733Z,101091.09
2022-11-29T05:38:18.668Z,101090.19
2022-11-29T05:41:00.310Z,101096.28
2022-11-29T05:43:50.094Z,101070.81
2022-11-29T05:46:37.915Z,101097.22
2022-11-29T05:49:23.356Z,101093.81
2022-11-29T05:52:11.406Z,101098.06
2022-11-29T05:54:45.244Z,101096.34
2022-11-29T05:57:21.097Z,101105.84
2022-11-29T05:59:49.286Z,101091.31
2022-11-29T06:02:46.501Z,101105.81
2022-11-29T06:05:19.738Z,101093.88
2022-11-29T06:08:13.817Z,101115.13
2022-11-29T06:10:55.684Z,101117.75
2022-11-29T06:13:36.683Z,101113.53
2022-11-29T06:16:03.217Z,101115.25
2022-11-29T06:18:29.444Z,101115.22
2022-11-29T06:21:22.481Z,101117.00
2022-11-29T06:23:59.227Z,101098.28
2022-11-29T06:26:34.044Z,101122.16
2022-11-29T06:29:19.240Z,101126.41
2022-11-29T06:31:52.884Z,101123.81
2022-11-29T06:35:17.299Z,101044.63
2022-11-29T06:37:49.230Z,101124.50
2022-11-29T06:40:16.859Z,101064.06
2022-11-29T06:42:45.214Z,101119.19
2022-11-29T06:45:13.960Z,101121.81
2022-11-29T06:47:50.141Z,101122.50
2022-11-29T06:50:28.594Z,101117.38
2022-11-29T06:53:14.555Z,101122.50
2022-11-29T06:56:13.868Z,101123.22
2022-11-29T06:58:43.813Z,101132.66
2022-11-29T07:01:41.847Z,101124.91
2022-11-29T07:04:45.401Z,101129.94
2022-11-29T07:07:16.342Z,101124.66
2022-11-29T07:09:43.418Z,101101.72
2022-11-29T07:12:10.464Z,101120.12
2022-11-29T07:14:37.277Z,101119.19
2022-11-29T07:17:25.604Z,101082.66
2022-11-29T07:20:01.715Z,101130.94
2022-11-29T07:22:59.223Z,101122.31
2022-11-29T07:25:53.369Z,101120.44
2022-11-29T07:28:39.100Z,101125.44
2022-11-29T07:31:07.644Z,101127.84
2022-11-29T07:33:50.318Z,101123.41
2022-11-29T07:36:19.693Z,101122.44
2022-11-29T07:38:53.811Z,101124.87
2022-11-29T07:41:27.590Z,101121.28
2022-11-29T07:44:16.800Z,101125.41
2022-11-29T07:46:43.590Z,101129.44
2022-11-29T07:49:11.217Z,101131.03
2022-11-29T07:51:37.633Z,101055.84
2022-11-29T07:54:12.504Z,101107.38
2022-11-29T07:56:39.207Z,101128.28
2022-11-29T07:59:07.800Z,101129.63
2022-11-29T08:01:34.390Z,101130.16
2022-11-29T08:04:01.019Z,101101.75
2022-11-29T08:06:27.348Z,101122.81
2022-11-29T08:08:53.681Z,101120.53
2022-11-29T08:11:20.286Z,101107.09
2022-11-29T08:13:46.631Z,101111.19
2022-11-29T08:16:21.466Z,101108.59
2022-11-29T08:18:48.427Z,101114.53
2022-11-29T08:21:18.309Z,101101.78
2022-11-29T08:23:45.695Z,101097.38
2022-11-29T08:26:12.583Z,101125.91
2022-11-29T08:28:38.910Z,101120.50
2022-11-29T08:31:08.285Z,101123.38
2022-11-29T08:33:36.545Z,101103.62
2022-11-29T08:36:10.056Z,101110.22
2022-11-29T08:38:36.819Z,101116.66
2022-11-29T08:41:03.988Z,101115.66
2022-11-29T08:43:31.201Z,101123.03
2022-11-29T08:46:07.617Z,101123.78
2022-11-29T08:48:37.063Z,101126.06
2022-11-29T08:51:05.050Z,101124.78
2022-11-29T08:53:43.624Z,101100.97
2022-11-29T08:57:10.068Z,101103.31
2022-11-29T08:59:07.772Z,101085.94
2022-11-29T09:01:34.577Z,101112.66
2022-11-29T09:04:03.027Z,101110.41
2022-11-29T09:06:38.194Z,101122.19
2022-11-29T09:09:05.421Z,101069.59
2022-11-29T09:11:33.994Z,101107.41
2022-11-29T09:14:04.187Z,101094.81
2022-11-29T09:16:34.156Z,101089.03
2022-11-29T09:19:00.731Z,101076.75
2022-11-29T09:21:28.144Z,101094.41
2022-11-29T09:23:59.162Z,101100.03
2022-11-29T09:26:28.045Z,101091.44
2022-11-29T09:28:55.121Z,101083.41
2022-11-29T09:31:22.006Z,101097.94
2022-11-29T09:33:49.040Z,101096.09
2022-11-29T09:36:19.360Z,101089.16
2022-11-29T09:38:48.754Z,101073.72
2022-11-29T09:41:27.036Z,101093.75
2022-11-29T09:44:09.049Z,101091.78
2022-11-29T09:47:06.271Z,101090.00
2022-11-29T09:50:00.931Z,101091.41
2022-11-29T09:52:37.372Z,101065.91
2022-11-29T09:55:16.495Z,101061.97
2022-11-29T09:57:46.705Z,101079.25
2022-11-29T10:00:22.363Z,101073.47
2022-11-29T10:03:31.963Z,101069.91
2022-11-29T10:06:07.388Z,101077.91
2022-11-29T10:08:37.550Z,101078.19
2022-11-29T10:11:20.568Z,101071.34
2022-11-29T10:13:52.308Z,101064.00
2022-11-29T10:16:25.828Z,101071.50
2022-11-29T10:19:04.236Z,101068.94
2022-11-29T10:21:36.781Z,101066.41
2022-11-29T10:24:09.432Z,101057.81
2022-11-29T10:26:36.192Z,101058.34
2022-11-29T10:29:02.941Z,101008.56
2022-11-29T10:31:36.037Z,101044.38
2022-11-29T10:34:13.577Z,101032.69
2022-11-29T10:37:05.141Z,101053.47
2022-11-29T10:39:39.666Z,101029.34
2022-11-29T10:42:26.875Z,101041.66
2022-11-29T10:44:53.638Z,101017.19
2022-11-29T10:47:20.211Z,101030.53
2022-11-29T10:49:46.577Z,101036.53
2022-11-29T10:52:21.744Z,100967.47
2022-11-29T10:54:49.059Z,101026.50
2022-11-29T10:57:18.754Z,101037.22
2022-11-29T11:00:04.833Z,101031.78
2022-11-29T11:02:31.832Z,101036.66
2022-11-29T11:04:58.905Z,101006.25
2022-11-29T11:07:35.697Z,101034.50
2022-11-29T11:10:05.784Z,101014.09
2022-11-29T11:12:34.832Z,101032.47
2022-11-29T11:15:31.753Z,101026.06
2022-11-29T11:18:01.035Z,101028.69
2022-11-29T11:20:32.551Z,101025.59
2022-11-29T11:23:06.615Z,101030.75
2022-11-29T11:25:39.767Z,101014.72
2022-11-29T11:28:18.186Z,101032.66
2022-11-29T11:31:00.550Z,101027.75
2022-11-29T11:33:31.244Z,101008.38
2022-11-29T11:36:07.326Z,101021.56
2022-11-29T11:38:35.646Z,101026.69
2022-11-29T11:41:08.041Z,101027.44
2022-11-29T11:43:35.087Z,101038.06
2022-11-29T11:46:02.232Z,101020.16
2022-11-29T11:48:28.892Z,101007.06
2022-11-29T11:50:58.262Z,101028.66
2022-11-29T11:53:29.896Z,101025.59
2022-11-29T11:56:01.725Z,101030.25
2022-11-29T11:58:32.943Z,101024.94
2022-11-29T12:01:14.794Z,101021.00
2022-11-29T12:03:54.499Z,100992.38
2022-11-29T12:06:51.999Z,101031.41
2022-11-29T12:09:49.165Z,101031.19
2022-11-29T12:12:38.499Z,101029.44
2022-11-29T12:15:15.958Z,101037.19
2022-11-29T12:18:16.071Z,101022.72
2022-11-29T12:20:48.880Z,101033.19
2022-11-29T12:23:23.834Z,101027.31
2022-11-29T12:25:58.218Z,101028.28
2022-11-29T12:28:35.786Z,101028.69
2022-11-29T12:31:14.699Z,101036.22
2022-11-29T12:34:22.249Z,101033.03
2022-11-29T12:37:32.266Z,101044.16
2022-11-29T12:40:20.091Z,101047.13
2022-11-29T12:42:49.613Z,101042.81
2022-11-29T12:45:36.720Z,101046.97
2022-11-29T12:48:04.699Z,101042.41
2022-11-29T12:50:52.756Z,101041.28
2022-11-29T12:53:41.171Z,101049.28
2022-11-29T12:56:16.245Z,101049.00
2022-11-29T12:59:06.220Z,101042.69
2022-11-29T13:01:57.417Z,101040.59
2022-11-29T13:04:36.831Z,101054.06
2022-11-29T13:07:48.935Z,101024.84
2022-11-29T13:10:18.368Z,101053.50
2022-11-29T13:12:50.915Z,101042.56
2022-11-29T13:15:23.718Z,101001.78
2022-11-29T13:17:53.277Z,101031.72
2022-11-29T13:20:29.363Z,101050.56
2022-11-29T13:23:11.067Z,101027.88
2022-11-29T13:25:41.070Z,101051.38
2022-11-29T13:28:28.847Z,101048.25
2022-11-29T13:31:01.364Z,101034.41
2022-11-29T13:33:39.542Z,101055.09
2022-11-29T13:36:11.541Z,101023.91
2022-11-29T13:39:07.835Z,101042.91
2022-11-29T13:41:42.067Z,100968.75
2022-11-29T13:44:32.390Z,101038.31
2022-11-29T13:47:13.072Z,101011.88
2022-11-29T13:49:57.057Z,101045.84
2022-11-29T13:52:26.802Z,101052.97
2022-11-29T13:55:05.010Z,101052.56
2022-11-29T13:58:17.744Z,101047.69
2022-11-29T14:00:44.587Z,101043.69
2022-11-29T14:03:20.299Z,101050.28
2022-11-29T14:05:48.526Z,101056.66
2022-11-29T14:08:24.132Z,101050.06
2022-11-29T14:10:51.046Z,101045.09
2022-11-29T14:13:17.706Z,101048.13
2022-11-29T14:15:44.478Z,101049.34
2022-11-29T14:18:40.710Z,101051.44
2022-11-29T14:21:07.871Z,101050.59
2022-11-29T14:23:36.896Z,101028.91
2022-11-29T14:26:03.133Z,101034.97
2022-11-29T14:28:31.362Z,101049.97
2022-11-29T14:31:05.365Z,101055.56
2022-11-29T14:33:47.401Z,101024.56
2022-11-29T14:36:23.074Z,101058.88
2022-11-29T14:39:08.685Z,101059.88
2022-11-29T14:41:47.443Z,101052.81
2022-11-29T14:44:18.205Z,101059.69
2022-11-29T14:46:45.091Z,101035.44
2022-11-29T14:49:23.207Z,101066.31
2022-11-29T14:52:08.339Z,101061.53
2022-11-29T14:54:35.641Z,101043.06
2022-11-29T14:57:41.399Z,101004.34
2022-11-29T15:00:14.283Z,101068.41
2022-11-29T15:02:44.863Z,101066.91
2022-11-29T15:05:19.115Z,101026.59
2022-11-29T15:08:02.144Z,101058.88
2022-11-29T15:10:31.154Z,101076.03
2022-11-29T15:12:59.415Z,101070.22
2022-11-29T15:16:21.524Z,101077.31
2022-11-29T15:19:13.296Z,101079.25
2022-11-29T15:21:45.511Z,101082.94
2022-11-29T15:24:14.459Z,101082.34
2022-11-29T15:27:00.863Z,101077.22
2022-11-29T15:29:29.121Z,101072.38
2022-11-29T15:32:01.194Z,101069.16
2022-11-29T15:34:33.128Z,101084.75
2022-11-29T15:37:00.227Z,101076.44
2022-11-29T15:39:27.910Z,101077.41
2022-11-29T15:42:00.521Z,101079.31
2022-11-29T15:44:26.843Z,101083.75
2022-11-29T15:46:53.110Z,101072.78
2022-11-29T15:49:25.483Z,101083.25
2022-11-29T15:51:57.197Z,101072.34
2022-11-29T15:54:31.309Z,101089.56
2022-11-29T15:57:03.572Z,101083.66
2022-11-29T15:59:45.427Z,101100.84
2022-11-29T16:02:19.210Z,101101.81
2022-11-29T16:04:47.437Z,101097.50
2022-11-29T16:07:14.457Z,101086.56
2022-11-29T16:09:44.448Z,101093.59
2022-11-29T16:12:16.045Z,101088.56
2022-11-29T16:14:53.359Z,101066.78
2022-11-29T16:17:21.028Z,101098.22
2022-11-29T16:19:47.959Z,101101.66
2022-11-29T16:22:16.237Z,101099.16
2022-11-29T16:25:07.895Z,101099.25
2022-11-29T16:27:35.591Z,101086.69
2022-11-29T16:30:02.721Z,101077.22
2022-11-29T16:32:38.015Z,101080.78
2022-11-29T16:35:25.547Z,101096.94
2022-11-29T16:37:51.985Z,101097.94
2022-11-29T16:40:26.856Z,101097.13
2022-11-29T16:43:24.002Z,101101.44
2022-11-29T16:46:22.717Z,101108.31
2022-11-29T16:48:50.073Z,101110.03
2022-11-29T16:51:23.822Z,101107.56
2022-11-29T16:53:51.907Z,101113.66
2022-11-29T16:56:28.220Z,101090.84
2022-11-29T16:59:25.254Z,101119.72
2022-11-29T17:01:42.652Z,101125.84
2022-11-29T17:04:09.233Z,101103.75
2022-11-29T17:06:36.483Z,101123.34
2022-11-29T17:09:03.396Z,101091.13
2022-11-29T17:11:30.725Z,101123.47
2022-11-29T17:13:57.258Z,101121.91
2022-11-29T17:16:24.637Z,101123.62
2022-11-29T17:18:52.862Z,101120.28
2022-11-29T17:21:24.306Z,101115.19
2022-11-29T17:23:51.718Z,101116.91
2022-11-29T17:26:18.617Z,101114.28
2022-11-29T17:28:46.390Z,101107.28
2022-11-29T17:31:21.207Z,101094.75
2022-11-29T17:33:47.676Z,101117.72
2022-11-29T17:36:16.702Z,101114.28
2022-11-29T17:38:44.263Z,101116.13
2022-11-29T17:41:18.966Z,101105.09
2022-11-29T17:43:45.589Z,101101.94
2022-11-29T17:46:17.568Z,101111.37
2022-11-29T17:48:46.235Z,101123.41
2022-11-29T17:51:50.047Z,101130.34
2022-11-29T17:54:04.898Z,101138.06
2022-11-29T17:56:31.743Z,101121.91
2022-11-29T17:59:00.644Z,101138.13
2022-11-29T18:01:28.867Z,101144.19
2022-11-29T18:03:58.113Z,101147.62
2022-11-29T18:06:29.581Z,101143.44
2022-11-29T18:08:58.128Z,101100.06
2022-11-29T18:11:27.673Z,101139.13
2022-11-29T18:13:55.310Z,101150.25
2022-11-29T18:16:27.288Z,101147.78
2022-11-29T18:18:58.403Z,101132.50
2022-11-29T18:21:24.982Z,101135.97
2022-11-29T18:23:51.357Z,101153.06
2022-11-29T18:26:20.095Z,101139.47
2022-11-29T18:28:47.247Z,101157.41
2022-11-29T18:31:15.869Z,101158.31
2022-11-29T18:33:43.417Z,101158.31
2022-11-29T18:36:15.731Z,101138.78
2022-11-29T18:38:43.407Z,101166.06
2022-11-29T18:41:18.874Z,101149.06
2022-11-29T18:43:45.953Z,101159.31
2022-11-29T18:46:14.453Z,101151.66
2022-11-29T18:48:41.909Z,101156.00
2022-11-29T18:51:11.352Z,101126.06
2022-11-29T18:53:39.184Z,101143.03
2022-11-29T18:56:10.259Z,101146.56
2022-11-29T18:58:36.769Z,101148.34
2022-11-29T19:01:08.935Z,101139.06
2022-11-29T19:03:39.972Z,101151.91
2022-11-29T19:06:08.866Z,101151.09
2022-11-29T19:08:35.583Z,101155.37
2022-11-29T19:11:12.504Z,101157.16
2022-11-29T19:13:39.446Z,101155.44
2022-11-29T19:16:08.317Z,101157.16
2022-11-29T19:18:35.109Z,101149.47
2022-11-29T19:21:12.932Z,101154.69
2022-11-29T19:23:39.832Z,101159.88
2022-11-29T19:26:08.414Z,101162.50
2022-11-29T19:28:36.677Z,101162.53
2022-11-29T19:31:05.301Z,101161.66
2022-11-29T19:33:33.755Z,101161.69
2022-11-29T19:36:07.361Z,101160.94
2022-11-29T19:38:36.862Z,101175.50
2022-11-29T19:41:11.162Z,101171.25
2022-11-29T19:43:38.366Z,101177.22
2022-11-29T19:46:09.592Z,101183.22
2022-11-29T19:48:35.962Z,101181.50
2022-11-29T19:51:03.492Z,101179.78
2022-11-29T19:53:30.004Z,101172.97
2022-11-29T19:55:56.644Z,101167.84
2022-11-29T19:58:23.384Z,101171.25
2022-11-29T20:00:49.677Z,101177.28
2022-11-29T20:03:16.342Z,101154.19
2022-11-29T20:05:42.673Z,101150.81
2022-11-29T20:08:08.948Z,101167.72
2022-11-29T20:10:35.575Z,101161.69
2022-11-29T20:17:30.312Z,101164.25
2022-11-29T20:19:56.960Z,101155.72
2022-11-29T20:22:23.276Z,101154.09
2022-11-29T20:24:49.536Z,101149.72
2022-11-29T20:27:16.083Z,101142.88
2022-11-29T20:29:42.389Z,101131.91
2022-11-29T20:32:08.734Z,101148.03
2022-11-29T20:34:35.566Z,101142.03
2022-11-29T20:37:39.605Z,101147.22
2022-11-29T20:40:13.456Z,101152.53
2022-11-29T20:42:52.643Z,101147.38
2022-11-29T20:45:19.636Z,101137.94
2022-11-29T20:47:50.767Z,101142.28
2022-11-29T20:50:23.195Z,101140.62
2022-11-29T20:52:53.401Z,101132.91
2022-11-29T20:55:20.755Z,101128.66
2022-11-29T20:57:47.085Z,101130.50
2022-11-29T21:00:15.157Z,101124.53
2022-11-29T21:02:42.299Z,101133.06
2022-11-29T21:05:08.768Z,101127.06
2022-11-29T21:07:35.822Z,101125.13
2022-11-29T21:10:02.282Z,101117.22
2022-11-29T21:12:29.885Z,101115.37
2022-11-29T21:14:57.159Z,101114.50
2022-11-29T21:17:26.452Z,101114.63
2022-11-29T21:19:57.190Z,101113.84
2022-11-29T21:22:40.785Z,101117.19
2022-11-29T21:25:19.292Z,101118.81
2022-11-29T21:27:45.836Z,101121.31
2022-11-29T21:30:19.166Z,101124.00
2022-11-29T21:32:46.131Z,101107.09
2022-11-29T21:35:13.759Z,101118.22
2022-11-29T21:37:40.196Z,101123.47
2022-11-29T21:40:07.703Z,101126.13
2022-11-29T21:42:34.356Z,101114.91
2022-11-29T21:45:00.620Z,101135.53
2022-11-29T21:47:26.909Z,101127.06
2022-11-29T21:49:54.835Z,101110.25
2022-11-29T21:52:22.950Z,101114.53
2022-11-29T21:54:49.915Z,101135.06
2022-11-29T21:57:16.623Z,101143.75
2022-11-29T21:59:42.974Z,101139.38
2022-11-29T22:02:09.347Z,101142.69
2022-11-29T22:04:36.088Z,101151.31
2022-11-29T22:07:02.397Z,101152.25
2022-11-29T22:09:28.709Z,101155.72
2022-11-29T22:11:56.325Z,101155.69
2022-11-29T22:14:23.837Z,101154.78
2022-11-29T22:16:54.658Z,101161.63
2022-11-29T22:19:32.011Z,101145.41
2022-11-29T22:22:00.167Z,101152.19
2022-11-29T22:24:28.776Z,101149.56
2022-11-29T22:26:55.692Z,101130.00
2022-11-29T22:29:22.922Z,101151.91
2022-11-29T22:31:52.815Z,101150.25
2022-11-29T22:34:19.954Z,101141.78
2022-11-29T22:36:46.377Z,101122.44
2022-11-29T22:39:13.031Z,101147.16
2022-11-29T22:41:40.074Z,101148.06
2022-11-29T22:44:06.634Z,101140.28
2022-11-29T22:46:35.489Z,101147.16
2022-11-29T22:49:03.161Z,101133.41
2022-11-29T22:51:31.613Z,101136.81
2022-11-29T22:54:00.522Z,101137.72
2022-11-29T22:56:32.984Z,101133.50
2022-11-29T22:59:00.029Z,101135.25
2022-11-29T23:01:28.552Z,101143.84
2022-11-29T23:03:56.901Z,101133.56
2022-11-29T23:06:26.078Z,101132.78
2022-11-29T23:08:53.894Z,101136.16
2022-11-29T23:11:23.365Z,101136.16
2022-11-29T23:13:50.327Z,101137.84
2022-11-29T23:16:18.839Z,101141.31
2022-11-29T23:18:48.071Z,101140.47
2022-11-29T23:21:15.632Z,101141.28
2022-11-29T23:23:42.549Z,101131.00
2022-11-29T23:26:09.753Z,101135.28
2022-11-29T23:28:36.404Z,101136.09
2022-11-29T23:31:02.706Z,101135.31
2022-11-29T23:33:29.004Z,101135.34
2022-11-29T23:36:04.461Z,101129.41
2022-11-29T23:38:30.967Z,101128.53
2022-11-29T23:40:57.625Z,101103.84
2022-11-29T23:43:24.037Z,101099.69
2022-11-29T23:45:50.509Z,101120.91
2022-11-29T23:48:17.146Z,101123.41
2022-11-29T23:50:43.816Z,101114.06
2022-11-29T23:53:14.162Z,101127.75
2022-11-29T23:55:41.172Z,101127.75
2022-11-29T23:58:07.544Z,101103.16
